createdAt,value
2023-04-02T00:00:57.810Z,99836.31
2023-04-02T00:04:22.660Z,99837.19
2023-04-02T00:07:31.366Z,99823.06
2023-04-02T00:10:38.492Z,99834.53
2023-04-02T00:13:44.917Z,99850.38
2023-04-02T00:16:48.260Z,99842.50
2023-04-02T00:19:57.912Z,99835.44
2023-04-02T00:23:00.922Z,99816.94
2023-04-02T00:26:07.455Z,99834.53
2023-04-02T00:29:12.824Z,99838.00
2023-04-02T00:32:28.422Z,99854.78
2023-04-02T00:35:31.366Z,99853.94
2023-04-02T00:38:35.802Z,99835.41
2023-04-02T00:41:39.026Z,99857.44
2023-04-02T00:44:46.469Z,99850.38
2023-04-02T00:47:49.422Z,99873.34
2023-04-02T00:50:53.905Z,99862.81
2023-04-02T00:53:58.947Z,99850.47
2023-04-02T00:57:02.106Z,99865.47
2023-04-02T01:00:14.664Z,99887.56
2023-04-02T01:03:17.363Z,99891.94
2023-04-02T01:06:21.020Z,99880.47
2023-04-02T01:09:50.770Z,99888.41
2023-04-02T01:13:11.438Z,99872.59
2023-04-02T01:16:32.459Z,99894.63
2023-04-02T01:19:35.909Z,99897.31
2023-04-02T01:23:06.163Z,99888.47
2023-04-02T01:26:28.047Z,99903.47
2023-04-02T01:29:32.920Z,99898.22
2023-04-02T01:32:36.814Z,99884.13
2023-04-02T01:35:42.026Z,99881.47
2023-04-02T01:38:52.061Z,99871.81
2023-04-02T01:42:21.433Z,99885.88
2023-04-02T01:45:24.584Z,99892.06
2023-04-02T01:48:30.913Z,99907.94
2023-04-02T01:52:32.586Z,99919.41
2023-04-02T01:55:53.540Z,99920.31
2023-04-02T01:59:00.169Z,99914.13
2023-04-02T02:02:07.832Z,99930.00
2023-04-02T02:05:38.231Z,99934.38
2023-04-02T02:08:55.411Z,99929.97
2023-04-02T02:11:59.320Z,99917.66
2023-04-02T02:15:02.903Z,99910.56
2023-04-02T02:18:07.276Z,99929.97
2023-04-02T02:21:10.950Z,99923.81
2023-04-02T02:24:36.002Z,99940.56
2023-04-02T02:28:17.407Z,99947.59
2023-04-02T02:31:28.220Z,99944.06
2023-04-02T02:34:41.923Z,99936.16
2023-04-02T02:37:48.229Z,99933.50
2023-04-02T02:40:54.617Z,99925.59
2023-04-02T02:44:11.610Z,99946.75
2023-04-02T02:47:23.277Z,99948.53
2023-04-02T02:50:30.170Z,99939.69
2023-04-02T02:53:33.593Z,99942.34
2023-04-02T02:56:40.641Z,99955.56
2023-04-02T02:59:49.104Z,99976.69
2023-04-02T03:02:54.520Z,99958.19
2023-04-02T03:06:06.557Z,99983.75
2023-04-02T03:09:20.991Z,99975.81
2023-04-02T03:13:08.847Z,99980.25
2023-04-02T03:16:30.053Z,99995.19
2023-04-02T03:19:44.318Z,99993.41
2023-04-02T03:23:03.123Z,99983.72
2023-04-02T03:30:29.405Z,99996.03
2023-04-02T03:33:59.951Z,100011.91
2023-04-02T03:37:35.171Z,100023.31
2023-04-02T03:41:10.063Z,100035.66
2023-04-02T03:44:32.074Z,100016.22
2023-04-02T03:52:04.094Z,100048.84
2023-04-02T03:55:33.194Z,100027.66
2023-04-02T03:58:42.370Z,100037.38
2023-04-02T04:01:54.945Z,100055.00
2023-04-02T04:04:58.830Z,100071.75
2023-04-02T04:08:06.211Z,100056.66
2023-04-02T04:11:17.775Z,100072.56
2023-04-02T04:14:28.000Z,100040.78
2023-04-02T04:17:38.785Z,100062.78
2023-04-02T04:20:57.127Z,100087.47
2023-04-02T04:24:22.162Z,100095.31
2023-04-02T04:27:54.247Z,100100.53
2023-04-02T04:31:01.887Z,100100.41
2023-04-02T04:34:16.288Z,100094.94
2023-04-02T04:37:25.570Z,100108.16
2023-04-02T04:40:54.275Z,100115.16
2023-04-02T04:44:19.210Z,100078.91
2023-04-02T04:47:36.211Z,100105.50
2023-04-02T04:50:51.283Z,100125.06
2023-04-02T04:53:55.990Z,100140.06
2023-04-02T04:57:03.938Z,100137.34
2023-04-02T05:00:14.649Z,100130.06
2023-04-02T05:03:24.521Z,100164.53
2023-04-02T05:06:38.354Z,100165.25
2023-04-02T05:09:45.078Z,100175.03
2023-04-02T05:12:57.802Z,100159.13
2023-04-02T05:16:09.816Z,100172.34
2023-04-02T05:19:18.514Z,100167.88
2023-04-02T05:22:29.740Z,100168.78
2023-04-02T05:25:33.587Z,100167.81
2023-04-02T05:28:53.041Z,100190.75
2023-04-02T05:32:21.701Z,100197.88
2023-04-02T05:35:32.215Z,100190.66
2023-04-02T05:38:38.311Z,100203.81
2023-04-02T05:41:45.010Z,100197.69
2023-04-02T05:45:04.568Z,100211.78
2023-04-02T05:48:40.380Z,100224.19
2023-04-02T05:51:46.544Z,100193.22
2023-04-02T05:54:50.010Z,100233.91
2023-04-02T05:58:29.503Z,100197.66
2023-04-02T06:01:38.265Z,100206.50
2023-04-02T06:05:08.082Z,100225.88
2023-04-02T06:08:24.193Z,100217.72
2023-04-02T06:11:42.420Z,100233.97
2023-04-02T06:14:47.503Z,100241.97
2023-04-02T06:18:14.611Z,100255.00
2023-04-02T06:21:18.545Z,100253.19
2023-04-02T06:24:27.272Z,100264.66
2023-04-02T06:27:30.970Z,100269.06
2023-04-02T06:30:38.075Z,100260.19
2023-04-02T06:33:41.776Z,100270.09
2023-04-02T06:36:45.667Z,100284.28
2023-04-02T06:39:48.979Z,100287.81
2023-04-02T06:42:59.828Z,100269.16
2023-04-02T06:46:43.518Z,100289.41
2023-04-02T06:50:17.305Z,100301.56
2023-04-02T06:53:42.004Z,100306.84
2023-04-02T06:56:53.273Z,100283.63
2023-04-02T07:00:09.984Z,100313.06
2023-04-02T07:03:20.349Z,100313.88
2023-04-02T07:06:23.594Z,100306.78
2023-04-02T07:09:29.198Z,100319.19
2023-04-02T07:12:35.790Z,100309.50
2023-04-02T07:15:38.423Z,100301.47
2023-04-02T07:18:41.949Z,100326.28
2023-04-02T07:21:44.686Z,100344.84
2023-04-02T07:24:47.860Z,100319.09
2023-04-02T07:27:50.949Z,100313.81
2023-04-02T07:30:53.953Z,100331.44
2023-04-02T07:34:00.099Z,100329.47
2023-04-02T07:37:03.252Z,100356.69
2023-04-02T07:40:09.412Z,100351.31
2023-04-02T07:44:02.545Z,100362.09
2023-04-02T07:47:08.784Z,100364.47
2023-04-02T07:50:11.569Z,100364.50
2023-04-02T07:53:30.884Z,100377.94
2023-04-02T07:56:33.932Z,100386.78
2023-04-02T07:59:36.823Z,100373.75
2023-04-02T08:02:39.320Z,100365.66
2023-04-02T08:05:42.172Z,100391.25
2023-04-02T08:08:45.008Z,100381.22
2023-04-02T08:11:47.906Z,100390.19
2023-04-02T08:14:50.416Z,100403.50
2023-04-02T08:17:53.821Z,100408.81
2023-04-02T08:20:56.818Z,100418.66
2023-04-02T08:23:59.983Z,100412.63
2023-04-02T08:27:02.600Z,100412.56
2023-04-02T08:30:06.743Z,100403.50
2023-04-02T08:33:09.482Z,100407.13
2023-04-02T08:36:17.514Z,100409.88
2023-04-02T08:39:22.047Z,100421.47
2023-04-02T08:42:37.145Z,100438.38
2023-04-02T08:45:46.160Z,100449.53
2023-04-02T08:48:55.507Z,100436.34
2023-04-02T08:51:58.675Z,100439.94
2023-04-02T08:55:43.269Z,100460.31
2023-04-02T08:58:50.523Z,100464.88
2023-04-02T09:01:59.599Z,100456.97
2023-04-02T09:05:05.487Z,100433.72
2023-04-02T09:08:29.200Z,100467.53
2023-04-02T09:11:49.071Z,100464.06
2023-04-02T09:15:36.996Z,100463.84
2023-04-02T09:19:55.296Z,100481.69
2023-04-02T09:27:17.886Z,100492.19
2023-04-02T09:30:43.808Z,100502.69
2023-04-02T09:33:53.492Z,100495.41
2023-04-02T09:36:57.267Z,100489.28
2023-04-02T09:40:23.865Z,100516.69
2023-04-02T09:43:29.694Z,100516.56
2023-04-02T09:46:32.357Z,100504.91
2023-04-02T09:49:37.397Z,100516.50
2023-04-02T09:52:40.022Z,100509.59
2023-04-02T09:55:42.934Z,100522.00
2023-04-02T09:58:47.586Z,100510.38
2023-04-02T10:01:53.745Z,100529.94
2023-04-02T10:04:56.413Z,100526.31
2023-04-02T10:08:20.735Z,100524.47
2023-04-02T10:11:43.561Z,100520.84
2023-04-02T10:14:50.530Z,100536.75
2023-04-02T10:18:08.598Z,100541.19
2023-04-02T10:21:15.929Z,100546.28
2023-04-02T10:24:21.003Z,100560.22
2023-04-02T10:27:55.305Z,100573.34
2023-04-02T10:31:10.392Z,100568.94
2023-04-02T10:34:25.492Z,100563.28
2023-04-02T10:38:00.783Z,100572.81
2023-04-02T10:41:09.036Z,100580.72
2023-04-02T10:44:37.699Z,100585.38
2023-04-02T10:48:01.471Z,100595.03
2023-04-02T10:51:08.440Z,100590.72
2023-04-02T10:54:28.206Z,100582.81
2023-04-02T10:57:42.120Z,100586.31
2023-04-02T11:00:45.570Z,100598.63
2023-04-02T11:04:23.167Z,100616.63
2023-04-02T11:07:31.748Z,100604.00
2023-04-02T11:10:37.816Z,100621.75
2023-04-02T11:13:56.812Z,100609.38
2023-04-02T11:17:01.827Z,100619.25
2023-04-02T11:21:02.220Z,100635.81
2023-04-02T11:24:05.575Z,100640.09
2023-04-02T11:27:22.085Z,100634.88
2023-04-02T11:30:27.577Z,100625.81
2023-04-02T11:33:39.966Z,100644.38
2023-04-02T11:36:51.322Z,100660.81
2023-04-02T11:39:55.696Z,100663.34
2023-04-02T11:43:33.547Z,100670.53
2023-04-02T11:46:40.834Z,100670.31
2023-04-02T11:49:55.972Z,100675.06
2023-04-02T11:53:23.637Z,100654.72
2023-04-02T11:56:44.540Z,100672.53
2023-04-02T12:00:18.286Z,100661.03
